sensor_id;sensor_type;location;lat;lon;timestamp;P1;durP1;ratioP1;P2;durP2;ratioP2
16998;SDS011;10211;49.476;11.010;2023-08-20T00:02:25;6.17;;;5.03;;
16998;SDS011;10211;49.476;11.010;2023-08-20T00:04:55;9.83;;;6.30;;
16998;SDS011;10211;49.476;11.010;2023-08-20T00:07:25;6.73;;;5.30;;
16998;SDS011;10211;49.476;11.010;2023-08-20T00:09:52;11.10;;;5.30;;
16998;SDS011;10211;49.476;11.010;2023-08-20T00:12:18;9.63;;;5.93;;
16998;SDS011;10211;49.476;11.010;2023-08-20T00:14:52;6.33;;;5.73;;
16998;SDS011;10211;49.476;11.010;2023-08-20T00:17:21;9.70;;;5.43;;
16998;SDS011;10211;49.476;11.010;2023-08-20T00:19:52;11.00;;;5.90;;
16998;SDS011;10211;49.476;11.010;2023-08-20T00:22:20;11.17;;;6.87;;
16998;SDS011;10211;49.476;11.010;2023-08-20T00:24:50;9.90;;;5.13;;
16998;SDS011;10211;49.476;11.010;2023-08-20T00:27:17;8.47;;;5.40;;
16998;SDS011;10211;49.476;11.010;2023-08-20T00:29:44;8.30;;;5.70;;
16998;SDS011;10211;49.476;11.010;2023-08-20T00:32:11;6.65;;;5.95;;
16998;SDS011;10211;49.476;11.010;2023-08-20T00:34:38;6.00;;;5.30;;
16998;SDS011;10211;49.476;11.010;2023-08-20T00:37:05;6.20;;;4.85;;
16998;SDS011;10211;49.476;11.010;2023-08-20T00:39:32;5.93;;;5.43;;
16998;SDS011;10211;49.476;11.010;2023-08-20T00:42:00;7.20;;;5.97;;
16998;SDS011;10211;49.476;11.010;2023-08-20T00:44:27;7.47;;;5.18;;
16998;SDS011;10211;49.476;11.010;2023-08-20T00:46:54;9.10;;;5.90;;
16998;SDS011;10211;49.476;11.010;2023-08-20T00:49:21;8.93;;;5.77;;
16998;SDS011;10211;49.476;11.010;2023-08-20T00:51:48;6.70;;;6.00;;
16998;SDS011;10211;49.476;11.010;2023-08-20T00:54:16;7.43;;;5.83;;
16998;SDS011;10211;49.476;11.010;2023-08-20T00:56:43;8.25;;;5.40;;
16998;SDS011;10211;49.476;11.010;2023-08-20T00:59:12;9.20;;;6.20;;
16998;SDS011;10211;49.476;11.010;2023-08-20T01:01:39;7.20;;;5.93;;
16998;SDS011;10211;49.476;11.010;2023-08-20T01:04:06;7.47;;;5.27;;
16998;SDS011;10211;49.476;11.010;2023-08-20T01:06:44;7.83;;;5.63;;
16998;SDS011;10211;49.476;11.010;2023-08-20T01:09:19;10.53;;;5.83;;
16998;SDS011;10211;49.476;11.010;2023-08-20T01:11:56;6.07;;;5.47;;
16998;SDS011;10211;49.476;11.010;2023-08-20T01:14:26;9.97;;;6.03;;
16998;SDS011;10211;49.476;11.010;2023-08-20T01:16:53;7.53;;;5.50;;
16998;SDS011;10211;49.476;11.010;2023-08-20T01:19:21;7.23;;;5.63;;
16998;SDS011;10211;49.476;11.010;2023-08-20T01:21:53;6.40;;;5.60;;
16998;SDS011;10211;49.476;11.010;2023-08-20T01:24:30;6.03;;;5.53;;
16998;SDS011;10211;49.476;11.010;2023-08-20T01:27:19;8.43;;;6.03;;
16998;SDS011;10211;49.476;11.010;2023-08-20T01:30:04;6.87;;;6.17;;
16998;SDS011;10211;49.476;11.010;2023-08-20T01:32:33;6.03;;;5.43;;
16998;SDS011;10211;49.476;11.010;2023-08-20T01:35:00;6.10;;;5.33;;
16998;SDS011;10211;49.476;11.010;2023-08-20T01:37:28;6.20;;;5.23;;
16998;SDS011;10211;49.476;11.010;2023-08-20T01:39:55;6.03;;;5.10;;
16998;SDS011;10211;49.476;11.010;2023-08-20T01:42:22;8.03;;;5.70;;
16998;SDS011;10211;49.476;11.010;2023-08-20T01:44:48;9.77;;;5.47;;
16998;SDS011;10211;49.476;11.010;2023-08-20T01:47:16;9.53;;;6.07;;
16998;SDS011;10211;49.476;11.010;2023-08-20T01:49:43;10.80;;;5.60;;
16998;SDS011;10211;49.476;11.010;2023-08-20T01:52:10;6.17;;;5.10;;
16998;SDS011;10211;49.476;11.010;2023-08-20T01:54:37;6.33;;;5.53;;
16998;SDS011;10211;49.476;11.010;2023-08-20T01:57:04;7.17;;;6.47;;
16998;SDS011;10211;49.476;11.010;2023-08-20T01:59:30;6.23;;;5.63;;
16998;SDS011;10211;49.476;11.010;2023-08-20T02:01:57;9.10;;;6.00;;
16998;SDS011;10211;49.476;11.010;2023-08-20T02:04:25;8.37;;;5.70;;
16998;SDS011;10211;49.476;11.010;2023-08-20T02:06:52;8.40;;;6.87;;
16998;SDS011;10211;49.476;11.010;2023-08-20T02:09:18;6.87;;;6.27;;
16998;SDS011;10211;49.476;11.010;2023-08-20T02:11:46;6.77;;;5.83;;
16998;SDS011;10211;49.476;11.010;2023-08-20T02:14:12;10.53;;;6.87;;
16998;SDS011;10211;49.476;11.010;2023-08-20T02:16:39;7.50;;;6.27;;
16998;SDS011;10211;49.476;11.010;2023-08-20T02:19:06;9.13;;;6.77;;
16998;SDS011;10211;49.476;11.010;2023-08-20T02:21:34;7.43;;;6.03;;
16998;SDS011;10211;49.476;11.010;2023-08-20T02:24:01;6.93;;;6.20;;
16998;SDS011;10211;49.476;11.010;2023-08-20T02:26:28;6.87;;;5.83;;
16998;SDS011;10211;49.476;11.010;2023-08-20T02:28:55;6.97;;;5.80;;
16998;SDS011;10211;49.476;11.010;2023-08-20T02:31:21;9.57;;;6.00;;
16998;SDS011;10211;49.476;11.010;2023-08-20T02:33:48;8.43;;;6.37;;
16998;SDS011;10211;49.476;11.010;2023-08-20T02:36:15;8.43;;;7.23;;
16998;SDS011;10211;49.476;11.010;2023-08-20T02:38:44;10.63;;;6.93;;
16998;SDS011;10211;49.476;11.010;2023-08-20T02:41:11;8.03;;;6.77;;
16998;SDS011;10211;49.476;11.010;2023-08-20T02:43:38;7.43;;;6.33;;
16998;SDS011;10211;49.476;11.010;2023-08-20T02:46:04;12.63;;;6.97;;
16998;SDS011;10211;49.476;11.010;2023-08-20T02:48:31;8.97;;;6.77;;
16998;SDS011;10211;49.476;11.010;2023-08-20T02:50:58;7.77;;;6.90;;
16998;SDS011;10211;49.476;11.010;2023-08-20T02:53:24;15.90;;;6.13;;
16998;SDS011;10211;49.476;11.010;2023-08-20T02:55:53;9.30;;;6.90;;
16998;SDS011;10211;49.476;11.010;2023-08-20T02:58:20;9.13;;;6.20;;
16998;SDS011;10211;49.476;11.010;2023-08-20T03:00:46;6.33;;;5.73;;
16998;SDS011;10211;49.476;11.010;2023-08-20T03:03:13;8.00;;;6.13;;
16998;SDS011;10211;49.476;11.010;2023-08-20T03:05:40;6.70;;;6.00;;
16998;SDS011;10211;49.476;11.010;2023-08-20T03:08:08;7.37;;;6.30;;
16998;SDS011;10211;49.476;11.010;2023-08-20T03:10:35;7.47;;;6.40;;
16998;SDS011;10211;49.476;11.010;2023-08-20T03:13:03;10.73;;;6.17;;
16998;SDS011;10211;49.476;11.010;2023-08-20T03:15:30;7.50;;;6.57;;
16998;SDS011;10211;49.476;11.010;2023-08-20T03:17:57;8.30;;;6.40;;
16998;SDS011;10211;49.476;11.010;2023-08-20T03:20:24;9.00;;;6.70;;
16998;SDS011;10211;49.476;11.010;2023-08-20T03:22:51;9.27;;;7.03;;
16998;SDS011;10211;49.476;11.010;2023-08-20T03:25:18;9.30;;;7.40;;
16998;SDS011;10211;49.476;11.010;2023-08-20T03:27:45;8.63;;;6.13;;
16998;SDS011;10211;49.476;11.010;2023-08-20T03:30:13;9.03;;;6.70;;
16998;SDS011;10211;49.476;11.010;2023-08-20T03:32:40;7.20;;;6.50;;
16998;SDS011;10211;49.476;11.010;2023-08-20T03:35:07;7.53;;;6.47;;
16998;SDS011;10211;49.476;11.010;2023-08-20T03:37:34;7.73;;;6.90;;
16998;SDS011;10211;49.476;11.010;2023-08-20T03:40:01;11.43;;;6.93;;
16998;SDS011;10211;49.476;11.010;2023-08-20T03:42:29;9.10;;;6.97;;
16998;SDS011;10211;49.476;11.010;2023-08-20T03:44:56;9.33;;;7.13;;
16998;SDS011;10211;49.476;11.010;2023-08-20T03:47:24;10.43;;;8.37;;
16998;SDS011;10211;49.476;11.010;2023-08-20T03:49:51;10.60;;;7.73;;
16998;SDS011;10211;49.476;11.010;2023-08-20T03:52:18;10.57;;;7.47;;
16998;SDS011;10211;49.476;11.010;2023-08-20T03:54:45;9.13;;;7.20;;
16998;SDS011;10211;49.476;11.010;2023-08-20T03:57:12;11.57;;;7.47;;
16998;SDS011;10211;49.476;11.010;2023-08-20T03:59:38;9.20;;;7.63;;
16998;SDS011;10211;49.476;11.010;2023-08-20T04:02:05;8.93;;;7.30;;
16998;SDS011;10211;49.476;11.010;2023-08-20T04:04:33;13.73;;;7.80;;
16998;SDS011;10211;49.476;11.010;2023-08-20T04:07:02;9.27;;;7.73;;
16998;SDS011;10211;49.476;11.010;2023-08-20T04:09:28;9.20;;;7.17;;
16998;SDS011;10211;49.476;11.010;2023-08-20T04:11:56;9.80;;;7.97;;
16998;SDS011;10211;49.476;11.010;2023-08-20T04:14:23;11.60;;;7.63;;
16998;SDS011;10211;49.476;11.010;2023-08-20T04:16:50;10.17;;;7.73;;
16998;SDS011;10211;49.476;11.010;2023-08-20T04:19:16;9.97;;;7.97;;
16998;SDS011;10211;49.476;11.010;2023-08-20T04:21:44;10.23;;;7.90;;
16998;SDS011;10211;49.476;11.010;2023-08-20T04:24:11;9.10;;;6.70;;
16998;SDS011;10211;49.476;11.010;2023-08-20T04:26:38;9.33;;;7.50;;
16998;SDS011;10211;49.476;11.010;2023-08-20T04:29:05;8.47;;;7.50;;
16998;SDS011;10211;49.476;11.010;2023-08-20T04:31:31;7.93;;;6.83;;
16998;SDS011;10211;49.476;11.010;2023-08-20T04:33:58;10.10;;;7.27;;
16998;SDS011;10211;49.476;11.010;2023-08-20T04:36:25;10.17;;;7.23;;
16998;SDS011;10211;49.476;11.010;2023-08-20T04:38:53;10.07;;;7.90;;
16998;SDS011;10211;49.476;11.010;2023-08-20T04:41:20;9.70;;;7.43;;
16998;SDS011;10211;49.476;11.010;2023-08-20T04:43:48;14.70;;;8.20;;
16998;SDS011;10211;49.476;11.010;2023-08-20T04:46:15;11.73;;;7.50;;
16998;SDS011;10211;49.476;11.010;2023-08-20T04:48:41;8.53;;;7.53;;
16998;SDS011;10211;49.476;11.010;2023-08-20T04:51:08;9.03;;;7.80;;
16998;SDS011;10211;49.476;11.010;2023-08-20T04:53:35;7.47;;;6.77;;
16998;SDS011;10211;49.476;11.010;2023-08-20T04:56:03;9.17;;;7.07;;
16998;SDS011;10211;49.476;11.010;2023-08-20T04:58:30;8.57;;;7.63;;
16998;SDS011;10211;49.476;11.010;2023-08-20T05:00:57;8.47;;;7.00;;
16998;SDS011;10211;49.476;11.010;2023-08-20T05:03:23;10.47;;;6.60;;
16998;SDS011;10211;49.476;11.010;2023-08-20T05:05:51;8.33;;;6.27;;
16998;SDS011;10211;49.476;11.010;2023-08-20T05:08:18;6.50;;;5.87;;
16998;SDS011;10211;49.476;11.010;2023-08-20T05:10:45;9.03;;;6.10;;
16998;SDS011;10211;49.476;11.010;2023-08-20T05:13:13;6.57;;;5.17;;
16998;SDS011;10211;49.476;11.010;2023-08-20T05:15:39;8.13;;;6.13;;
16998;SDS011;10211;49.476;11.010;2023-08-20T05:18:06;12.20;;;5.33;;
16998;SDS011;10211;49.476;11.010;2023-08-20T05:20:33;7.20;;;5.10;;
16998;SDS011;10211;49.476;11.010;2023-08-20T05:22:59;7.93;;;5.73;;
16998;SDS011;10211;49.476;11.010;2023-08-20T05:25:26;5.90;;;5.30;;
16998;SDS011;10211;49.476;11.010;2023-08-20T05:27:53;7.00;;;5.83;;
16998;SDS011;10211;49.476;11.010;2023-08-20T05:30:21;8.67;;;6.17;;
16998;SDS011;10211;49.476;11.010;2023-08-20T05:32:48;10.68;;;6.00;;
16998;SDS011;10211;49.476;11.010;2023-08-20T05:35:14;7.30;;;5.90;;
16998;SDS011;10211;49.476;11.010;2023-08-20T05:37:41;8.70;;;7.07;;
16998;SDS011;10211;49.476;11.010;2023-08-20T05:40:08;12.60;;;7.70;;
16998;SDS011;10211;49.476;11.010;2023-08-20T05:42:35;9.75;;;6.72;;
16998;SDS011;10211;49.476;11.010;2023-08-20T05:45:02;7.97;;;7.18;;
16998;SDS011;10211;49.476;11.010;2023-08-20T05:47:31;10.65;;;7.20;;
16998;SDS011;10211;49.476;11.010;2023-08-20T05:49:57;12.93;;;7.13;;
16998;SDS011;10211;49.476;11.010;2023-08-20T05:52:24;9.68;;;7.63;;
16998;SDS011;10211;49.476;11.010;2023-08-20T05:54:51;7.22;;;6.47;;
16998;SDS011;10211;49.476;11.010;2023-08-20T05:57:17;7.72;;;6.97;;
16998;SDS011;10211;49.476;11.010;2023-08-20T05:59:44;10.55;;;7.97;;
16998;SDS011;10211;49.476;11.010;2023-08-20T06:02:14;8.35;;;7.20;;
16998;SDS011;10211;49.476;11.010;2023-08-20T06:04:44;8.15;;;7.35;;
16998;SDS011;10211;49.476;11.010;2023-08-20T06:07:11;8.43;;;7.00;;
16998;SDS011;10211;49.476;11.010;2023-08-20T06:09:37;7.47;;;6.43;;
16998;SDS011;10211;49.476;11.010;2023-08-20T06:12:04;8.63;;;7.78;;
16998;SDS011;10211;49.476;11.010;2023-08-20T06:14:31;14.32;;;7.45;;
16998;SDS011;10211;49.476;11.010;2023-08-20T06:16:58;10.20;;;7.60;;
16998;SDS011;10211;49.476;11.010;2023-08-20T06:19:25;11.98;;;7.38;;
16998;SDS011;10211;49.476;11.010;2023-08-20T06:21:53;7.80;;;6.93;;
16998;SDS011;10211;49.476;11.010;2023-08-20T06:24:20;9.85;;;7.88;;
16998;SDS011;10211;49.476;11.010;2023-08-20T06:26:47;10.52;;;7.75;;
16998;SDS011;10211;49.476;11.010;2023-08-20T06:29:13;9.70;;;7.53;;
16998;SDS011;10211;49.476;11.010;2023-08-20T06:31:40;10.40;;;8.63;;
16998;SDS011;10211;49.476;11.010;2023-08-20T06:34:07;10.43;;;8.70;;
16998;SDS011;10211;49.476;11.010;2023-08-20T06:36:33;8.82;;;7.75;;
16998;SDS011;10211;49.476;11.010;2023-08-20T06:39:02;11.95;;;7.85;;
16998;SDS011;10211;49.476;11.010;2023-08-20T06:41:29;15.20;;;8.00;;
16998;SDS011;10211;49.476;11.010;2023-08-20T06:43:55;8.70;;;7.90;;
16998;SDS011;10211;49.476;11.010;2023-08-20T06:46:22;8.60;;;7.70;;
16998;SDS011;10211;49.476;11.010;2023-08-20T06:48:49;9.93;;;8.50;;
16998;SDS011;10211;49.476;11.010;2023-08-20T06:51:18;9.90;;;8.35;;
16998;SDS011;10211;49.476;11.010;2023-08-20T06:53:45;10.40;;;9.30;;
16998;SDS011;10211;49.476;11.010;2023-08-20T06:56:13;9.00;;;8.13;;
16998;SDS011;10211;49.476;11.010;2023-08-20T06:58:41;9.68;;;8.77;;
16998;SDS011;10211;49.476;11.010;2023-08-20T07:01:08;10.55;;;8.52;;
16998;SDS011;10211;49.476;11.010;2023-08-20T07:03:37;12.70;;;8.68;;
16998;SDS011;10211;49.476;11.010;2023-08-20T07:06:05;9.82;;;8.40;;
16998;SDS011;10211;49.476;11.010;2023-08-20T07:08:32;9.73;;;7.50;;
16998;SDS011;10211;49.476;11.010;2023-08-20T07:10:59;10.45;;;8.10;;
16998;SDS011;10211;49.476;11.010;2023-08-20T07:13:27;10.90;;;7.55;;
16998;SDS011;10211;49.476;11.010;2023-08-20T07:15:53;11.98;;;8.52;;
16998;SDS011;10211;49.476;11.010;2023-08-20T07:18:21;11.40;;;8.05;;
16998;SDS011;10211;49.476;11.010;2023-08-20T07:20:47;7.72;;;6.88;;
16998;SDS011;10211;49.476;11.010;2023-08-20T07:23:15;16.52;;;8.18;;
16998;SDS011;10211;49.476;11.010;2023-08-20T07:25:42;9.40;;;7.28;;
16998;SDS011;10211;49.476;11.010;2023-08-20T07:28:10;12.82;;;8.40;;
16998;SDS011;10211;49.476;11.010;2023-08-20T07:30:38;12.93;;;8.75;;
16998;SDS011;10211;49.476;11.010;2023-08-20T07:33:05;10.35;;;8.38;;
16998;SDS011;10211;49.476;11.010;2023-08-20T07:35:32;12.38;;;7.78;;
16998;SDS011;10211;49.476;11.010;2023-08-20T07:38:00;8.63;;;7.70;;
16998;SDS011;10211;49.476;11.010;2023-08-20T07:40:27;8.10;;;7.35;;
16998;SDS011;10211;49.476;11.010;2023-08-20T07:42:54;7.65;;;6.85;;
16998;SDS011;10211;49.476;11.010;2023-08-20T07:45:21;8.50;;;7.70;;
16998;SDS011;10211;49.476;11.010;2023-08-20T07:47:49;8.07;;;7.22;;
16998;SDS011;10211;49.476;11.010;2023-08-20T07:50:16;7.45;;;6.75;;
16998;SDS011;10211;49.476;11.010;2023-08-20T07:52:42;8.23;;;6.13;;
16998;SDS011;10211;49.476;11.010;2023-08-20T07:55:09;9.15;;;7.15;;
16998;SDS011;10211;49.476;11.010;2023-08-20T07:57:36;8.35;;;7.50;;
16998;SDS011;10211;49.476;11.010;2023-08-20T08:00:04;8.32;;;7.30;;
16998;SDS011;10211;49.476;11.010;2023-08-20T08:02:31;7.70;;;6.95;;
16998;SDS011;10211;49.476;11.010;2023-08-20T08:04:59;7.25;;;6.25;;
16998;SDS011;10211;49.476;11.010;2023-08-20T08:07:26;6.88;;;6.20;;
16998;SDS011;10211;49.476;11.010;2023-08-20T08:09:53;10.23;;;7.25;;
16998;SDS011;10211;49.476;11.010;2023-08-20T08:12:20;8.73;;;6.65;;
16998;SDS011;10211;49.476;11.010;2023-08-20T08:14:47;7.20;;;5.88;;
16998;SDS011;10211;49.476;11.010;2023-08-20T08:17:14;7.40;;;5.30;;
16998;SDS011;10211;49.476;11.010;2023-08-20T08:19:40;9.25;;;5.63;;
16998;SDS011;10211;49.476;11.010;2023-08-20T08:22:08;7.10;;;5.63;;
16998;SDS011;10211;49.476;11.010;2023-08-20T08:24:35;9.30;;;5.07;;
16998;SDS011;10211;49.476;11.010;2023-08-20T08:27:02;5.18;;;4.55;;
16998;SDS011;10211;49.476;11.010;2023-08-20T08:29:29;5.10;;;4.60;;
16998;SDS011;10211;49.476;11.010;2023-08-20T08:31:55;6.20;;;5.05;;
16998;SDS011;10211;49.476;11.010;2023-08-20T08:34:22;7.30;;;5.70;;
16998;SDS011;10211;49.476;11.010;2023-08-20T08:36:49;6.00;;;4.65;;
16998;SDS011;10211;49.476;11.010;2023-08-20T08:39:17;7.78;;;5.18;;
16998;SDS011;10211;49.476;11.010;2023-08-20T08:41:43;6.25;;;4.35;;
16998;SDS011;10211;49.476;11.010;2023-08-20T08:44:16;5.47;;;4.90;;
16998;SDS011;10211;49.476;11.010;2023-08-20T08:46:43;5.95;;;4.68;;
16998;SDS011;10211;49.476;11.010;2023-08-20T08:49:12;6.13;;;4.82;;
16998;SDS011;10211;49.476;11.010;2023-08-20T08:51:39;9.60;;;5.50;;
16998;SDS011;10211;49.476;11.010;2023-08-20T08:54:10;5.75;;;5.25;;
16998;SDS011;10211;49.476;11.010;2023-08-20T08:56:39;4.95;;;4.22;;
16998;SDS011;10211;49.476;11.010;2023-08-20T08:59:06;6.90;;;5.10;;
16998;SDS011;10211;49.476;11.010;2023-08-20T09:01:37;6.20;;;4.97;;
16998;SDS011;10211;49.476;11.010;2023-08-20T09:04:04;4.82;;;4.43;;
16998;SDS011;10211;49.476;11.010;2023-08-20T09:06:42;7.50;;;5.97;;
16998;SDS011;10211;49.476;11.010;2023-08-20T09:09:11;5.00;;;4.60;;
16998;SDS011;10211;49.476;11.010;2023-08-20T09:11:40;5.55;;;4.57;;
16998;SDS011;10211;49.476;11.010;2023-08-20T09:14:06;9.95;;;4.78;;
16998;SDS011;10211;49.476;11.010;2023-08-20T09:16:33;6.35;;;4.78;;
16998;SDS011;10211;49.476;11.010;2023-08-20T09:19:01;4.50;;;4.10;;
16998;SDS011;10211;49.476;11.010;2023-08-20T09:21:29;5.63;;;4.18;;
16998;SDS011;10211;49.476;11.010;2023-08-20T09:23:56;6.30;;;4.05;;
16998;SDS011;10211;49.476;11.010;2023-08-20T09:26:23;5.07;;;4.63;;
16998;SDS011;10211;49.476;11.010;2023-08-20T09:28:54;6.55;;;4.53;;
16998;SDS011;10211;49.476;11.010;2023-08-20T09:31:36;4.53;;;4.13;;
16998;SDS011;10211;49.476;11.010;2023-08-20T09:34:04;4.47;;;4.15;;
16998;SDS011;10211;49.476;11.010;2023-08-20T09:36:37;6.18;;;3.90;;
16998;SDS011;10211;49.476;11.010;2023-08-20T09:39:04;4.70;;;4.20;;
16998;SDS011;10211;49.476;11.010;2023-08-20T09:41:33;5.60;;;4.35;;
16998;SDS011;10211;49.476;11.010;2023-08-20T09:44:05;4.40;;;3.92;;
16998;SDS011;10211;49.476;11.010;2023-08-20T09:46:33;7.68;;;4.45;;
16998;SDS011;10211;49.476;11.010;2023-08-20T09:49:01;6.72;;;3.97;;
16998;SDS011;10211;49.476;11.010;2023-08-20T09:51:30;10.30;;;4.65;;
16998;SDS011;10211;49.476;11.010;2023-08-20T09:54:00;4.80;;;4.32;;
16998;SDS011;10211;49.476;11.010;2023-08-20T09:56:38;8.60;;;4.20;;
16998;SDS011;10211;49.476;11.010;2023-08-20T09:59:15;5.50;;;4.30;;
16998;SDS011;10211;49.476;11.010;2023-08-20T10:01:43;7.05;;;3.75;;
16998;SDS011;10211;49.476;11.010;2023-08-20T10:04:12;3.85;;;3.45;;
16998;SDS011;10211;49.476;11.010;2023-08-20T10:06:43;3.47;;;3.17;;
16998;SDS011;10211;49.476;11.010;2023-08-20T10:09:11;4.85;;;3.92;;
16998;SDS011;10211;49.476;11.010;2023-08-20T10:11:52;11.60;;;3.83;;
16998;SDS011;10211;49.476;11.010;2023-08-20T10:17:05;4.28;;;3.00;;
16998;SDS011;10211;49.476;11.010;2023-08-20T10:19:47;6.63;;;3.22;;
16998;SDS011;10211;49.476;11.010;2023-08-20T10:22:32;4.88;;;3.60;;
16998;SDS011;10211;49.476;11.010;2023-08-20T10:24:59;6.13;;;3.10;;
16998;SDS011;10211;49.476;11.010;2023-08-20T10:27:40;5.25;;;3.60;;
16998;SDS011;10211;49.476;11.010;2023-08-20T10:30:10;7.95;;;3.50;;
16998;SDS011;10211;49.476;11.010;2023-08-20T10:32:46;4.18;;;3.10;;
16998;SDS011;10211;49.476;11.010;2023-08-20T10:35:17;3.80;;;3.50;;
16998;SDS011;10211;49.476;11.010;2023-08-20T10:38:01;4.53;;;3.95;;
16998;SDS011;10211;49.476;11.010;2023-08-20T10:40:47;4.03;;;3.63;;
16998;SDS011;10211;49.476;11.010;2023-08-20T10:43:27;5.55;;;3.50;;
16998;SDS011;10211;49.476;11.010;2023-08-20T10:46:15;3.63;;;3.30;;
16998;SDS011;10211;49.476;11.010;2023-08-20T10:48:46;5.07;;;3.75;;
16998;SDS011;10211;49.476;11.010;2023-08-20T10:51:19;3.42;;;3.13;;
16998;SDS011;10211;49.476;11.010;2023-08-20T10:54:02;3.92;;;3.63;;
16998;SDS011;10211;49.476;11.010;2023-08-20T10:56:37;3.83;;;3.53;;
16998;SDS011;10211;49.476;11.010;2023-08-20T10:59:07;5.03;;;3.25;;
16998;SDS011;10211;49.476;11.010;2023-08-20T11:01:35;5.22;;;3.33;;
16998;SDS011;10211;49.476;11.010;2023-08-20T11:04:04;4.95;;;3.90;;
16998;SDS011;10211;49.476;11.010;2023-08-20T11:06:32;3.72;;;3.42;;
16998;SDS011;10211;49.476;11.010;2023-08-20T11:08:59;3.70;;;3.40;;
16998;SDS011;10211;49.476;11.010;2023-08-20T11:11:28;6.10;;;4.20;;
16998;SDS011;10211;49.476;11.010;2023-08-20T11:13:55;5.82;;;3.50;;
16998;SDS011;10211;49.476;11.010;2023-08-20T11:16:22;6.60;;;3.50;;
16998;SDS011;10211;49.476;11.010;2023-08-20T11:18:51;3.90;;;3.47;;
16998;SDS011;10211;49.476;11.010;2023-08-20T11:21:19;4.28;;;3.75;;
16998;SDS011;10211;49.476;11.010;2023-08-20T11:23:47;10.77;;;4.07;;
16998;SDS011;10211;49.476;11.010;2023-08-20T11:26:14;6.22;;;3.53;;
16998;SDS011;10211;49.476;11.010;2023-08-20T11:28:44;3.83;;;3.10;;
16998;SDS011;10211;49.476;11.010;2023-08-20T11:31:11;3.65;;;3.35;;
16998;SDS011;10211;49.476;11.010;2023-08-20T11:33:39;4.32;;;3.35;;
16998;SDS011;10211;49.476;11.010;2023-08-20T11:36:10;3.42;;;3.17;;
16998;SDS011;10211;49.476;11.010;2023-08-20T11:38:37;7.28;;;3.50;;
16998;SDS011;10211;49.476;11.010;2023-08-20T11:41:04;3.40;;;3.03;;
16998;SDS011;10211;49.476;11.010;2023-08-20T11:43:31;3.38;;;3.10;;
16998;SDS011;10211;49.476;11.010;2023-08-20T11:45:59;3.50;;;3.20;;
16998;SDS011;10211;49.476;11.010;2023-08-20T11:48:25;4.97;;;3.38;;
16998;SDS011;10211;49.476;11.010;2023-08-20T11:50:52;3.67;;;3.40;;
16998;SDS011;10211;49.476;11.010;2023-08-20T11:53:33;3.47;;;3.00;;
16998;SDS011;10211;49.476;11.010;2023-08-20T11:56:00;3.50;;;3.20;;
16998;SDS011;10211;49.476;11.010;2023-08-20T11:58:28;5.38;;;2.85;;
16998;SDS011;10211;49.476;11.010;2023-08-20T12:00:54;5.55;;;3.40;;
16998;SDS011;10211;49.476;11.010;2023-08-20T12:03:22;5.60;;;3.33;;
16998;SDS011;10211;49.476;11.010;2023-08-20T12:05:55;3.40;;;3.10;;
16998;SDS011;10211;49.476;11.010;2023-08-20T12:08:22;6.18;;;3.13;;
16998;SDS011;10211;49.476;11.010;2023-08-20T12:10:53;4.97;;;3.10;;
16998;SDS011;10211;49.476;11.010;2023-08-20T12:13:24;4.13;;;3.42;;
16998;SDS011;10211;49.476;11.010;2023-08-20T12:15:51;4.28;;;3.20;;
16998;SDS011;10211;49.476;11.010;2023-08-20T12:18:18;3.22;;;2.78;;
16998;SDS011;10211;49.476;11.010;2023-08-20T12:20:45;3.15;;;2.67;;
16998;SDS011;10211;49.476;11.010;2023-08-20T12:23:12;3.17;;;2.50;;
16998;SDS011;10211;49.476;11.010;2023-08-20T12:25:38;5.45;;;2.90;;
16998;SDS011;10211;49.476;11.010;2023-08-20T12:28:06;3.58;;;2.95;;
16998;SDS011;10211;49.476;11.010;2023-08-20T12:30:34;3.30;;;2.85;;
16998;SDS011;10211;49.476;11.010;2023-08-20T12:33:01;4.25;;;2.75;;
16998;SDS011;10211;49.476;11.010;2023-08-20T12:35:28;7.00;;;2.97;;
16998;SDS011;10211;49.476;11.010;2023-08-20T12:37:55;3.05;;;2.75;;
16998;SDS011;10211;49.476;11.010;2023-08-20T12:40:22;5.38;;;3.60;;
16998;SDS011;10211;49.476;11.010;2023-08-20T12:42:48;3.17;;;2.90;;
16998;SDS011;10211;49.476;11.010;2023-08-20T12:45:16;3.08;;;2.88;;
16998;SDS011;10211;49.476;11.010;2023-08-20T12:47:43;3.35;;;3.00;;
16998;SDS011;10211;49.476;11.010;2023-08-20T12:50:10;2.72;;;2.53;;
16998;SDS011;10211;49.476;11.010;2023-08-20T12:52:38;3.15;;;2.70;;
16998;SDS011;10211;49.476;11.010;2023-08-20T12:55:05;4.60;;;3.13;;
16998;SDS011;10211;49.476;11.010;2023-08-20T13:00:00;2.65;;;2.42;;
16998;SDS011;10211;49.476;11.010;2023-08-20T13:02:33;2.38;;;2.17;;
16998;SDS011;10211;49.476;11.010;2023-08-20T13:05:01;5.20;;;3.13;;
16998;SDS011;10211;49.476;11.010;2023-08-20T13:07:29;5.47;;;2.95;;
16998;SDS011;10211;49.476;11.010;2023-08-20T13:09:56;5.07;;;2.30;;
16998;SDS011;10211;49.476;11.010;2023-08-20T13:12:25;4.60;;;2.60;;
16998;SDS011;10211;49.476;11.010;2023-08-20T13:14:54;2.85;;;2.30;;
16998;SDS011;10211;49.476;11.010;2023-08-20T13:17:21;3.22;;;2.55;;
16998;SDS011;10211;49.476;11.010;2023-08-20T13:19:50;3.65;;;2.58;;
16998;SDS011;10211;49.476;11.010;2023-08-20T13:22:16;2.78;;;2.50;;
16998;SDS011;10211;49.476;11.010;2023-08-20T13:24:43;6.50;;;2.60;;
16998;SDS011;10211;49.476;11.010;2023-08-20T13:27:10;2.50;;;2.35;;
16998;SDS011;10211;49.476;11.010;2023-08-20T13:29:36;4.75;;;2.60;;
16998;SDS011;10211;49.476;11.010;2023-08-20T13:32:03;2.80;;;2.50;;
16998;SDS011;10211;49.476;11.010;2023-08-20T13:34:30;2.45;;;2.25;;
16998;SDS011;10211;49.476;11.010;2023-08-20T13:36:58;3.97;;;2.97;;
16998;SDS011;10211;49.476;11.010;2023-08-20T13:39:24;2.42;;;2.08;;
16998;SDS011;10211;49.476;11.010;2023-08-20T13:41:51;2.47;;;2.28;;
16998;SDS011;10211;49.476;11.010;2023-08-20T13:44:19;5.43;;;2.40;;
16998;SDS011;10211;49.476;11.010;2023-08-20T13:46:45;2.40;;;2.20;;
16998;SDS011;10211;49.476;11.010;2023-08-20T13:49:12;5.25;;;2.40;;
16998;SDS011;10211;49.476;11.010;2023-08-20T13:51:39;4.35;;;2.67;;
16998;SDS011;10211;49.476;11.010;2023-08-20T13:54:07;4.88;;;2.47;;
16998;SDS011;10211;49.476;11.010;2023-08-20T13:56:34;5.05;;;2.60;;
16998;SDS011;10211;49.476;11.010;2023-08-20T13:59:00;2.90;;;2.70;;
16998;SDS011;10211;49.476;11.010;2023-08-20T14:01:27;4.40;;;2.67;;
16998;SDS011;10211;49.476;11.010;2023-08-20T14:03:54;2.85;;;2.65;;
16998;SDS011;10211;49.476;11.010;2023-08-20T14:06:21;4.50;;;2.78;;
16998;SDS011;10211;49.476;11.010;2023-08-20T14:08:47;5.32;;;3.10;;
16998;SDS011;10211;49.476;11.010;2023-08-20T14:11:15;4.03;;;3.40;;
16998;SDS011;10211;49.476;11.010;2023-08-20T14:13:42;2.85;;;2.65;;
16998;SDS011;10211;49.476;11.010;2023-08-20T14:16:09;7.30;;;3.22;;
16998;SDS011;10211;49.476;11.010;2023-08-20T14:18:36;3.63;;;2.88;;
16998;SDS011;10211;49.476;11.010;2023-08-20T14:21:02;5.18;;;2.95;;
16998;SDS011;10211;49.476;11.010;2023-08-20T14:23:29;4.00;;;3.25;;
16998;SDS011;10211;49.476;11.010;2023-08-20T14:25:56;3.08;;;2.80;;
16998;SDS011;10211;49.476;11.010;2023-08-20T14:28:24;4.20;;;3.08;;
16998;SDS011;10211;49.476;11.010;2023-08-20T14:30:50;4.82;;;3.10;;
16998;SDS011;10211;49.476;11.010;2023-08-20T14:33:19;3.08;;;2.75;;
16998;SDS011;10211;49.476;11.010;2023-08-20T14:35:46;5.40;;;3.30;;
16998;SDS011;10211;49.476;11.010;2023-08-20T14:38:12;3.30;;;3.00;;
16998;SDS011;10211;49.476;11.010;2023-08-20T14:40:39;5.60;;;2.78;;
16998;SDS011;10211;49.476;11.010;2023-08-20T14:43:06;2.72;;;2.53;;
16998;SDS011;10211;49.476;11.010;2023-08-20T14:45:34;5.88;;;2.72;;